Time;durP1;ratioP1;P1;durP2;ratioP2;P2;SDS_P1;SDS_P2;PMS_P1;PMS_P2;Temp;Humidity;BMP_temperature;BMP_pressure;BME280_temperature;BME280_humidity;BME280_pressure;Samples;Min_cycle;Max_cycle;Signal;HPM_P1;HPM_P2
2021/03/01 00:01:19;;;;;;;56.85;30.35;;;;;;;7.57;62.25;103458.97;4948169;28;112196;-74
2021/03/01 00:03:45;;;;;;;58.78;29.50;;;;;;;7.55;62.32;103455.44;4951896;28;114433;-74
2021/03/01 00:06:12;;;;;;;60.45;30.25;;;;;;;7.54;62.53;103453.66;4949673;28;123856;-73
2021/03/01 00:08:40;;;;;;;53.58;28.05;;;;;;;7.54;62.59;103453.66;4950724;28;121694;-74
2021/03/01 00:11:06;;;;;;;72.47;34.00;;;;;;;7.53;63.14;103454.50;4951790;28;114273;-75
2021/03/01 00:13:33;;;;;;;69.20;33.30;;;;;;;7.53;62.91;103451.88;4949287;28;113931;-72
2021/03/01 00:16:00;;;;;;;73.82;35.67;;;;;;;7.52;63.24;103455.41;4951529;28;125358;-73
2021/03/01 00:18:27;;;;;;;74.32;33.50;;;;;;;7.52;63.34;103450.13;4983284;28;124204;-73
2021/03/01 00:20:53;;;;;;;75.45;34.03;;;;;;;7.52;63.55;103455.41;4952083;28;114240;-73
2021/03/01 00:23:20;;;;;;;87.22;36.92;;;;;;;7.53;63.54;103451.88;4951669;28;113445;-73
2021/03/01 00:25:46;;;;;;;86.15;38.17;;;;;;;7.54;64.05;103452.78;4950151;28;122959;-73
2021/03/01 00:28:13;;;;;;;83.80;36.10;;;;;;;7.53;63.88;103457.16;4980624;28;123843;-73
2021/03/01 00:30:40;;;;;;;89.72;37.00;;;;;;;7.54;64.25;103453.66;4950587;28;113099;-73
2021/03/01 00:33:07;;;;;;;102.32;37.42;;;;;;;7.56;64.24;103451.94;4946178;28;114218;-73
2021/03/01 00:35:34;;;;;;;105.10;38.30;;;;;;;7.57;63.96;103448.44;4951355;28;123890;-73
2021/03/01 00:38:01;;;;;;;91.13;37.88;;;;;;;7.58;64.05;103447.53;4948876;28;123963;-74
2021/03/01 00:40:29;;;;;;;102.05;39.63;;;;;;;7.59;64.19;103441.41;4981506;28;113246;-74
2021/03/01 00:42:56;;;;;;;101.50;38.42;;;;;;;7.61;64.60;103444.06;4948133;28;114470;-73
2021/03/01 00:45:23;;;;;;;95.95;35.85;;;;;;;7.62;64.26;103444.94;4948648;28;124810;-73
2021/03/01 00:47:49;;;;;;;107.82;40.78;;;;;;;7.62;64.22;103444.94;4949405;28;122902;-74
2021/03/01 00:50:16;;;;;;;85.78;34.45;;;;;;;7.63;64.72;103458.16;4950565;28;113853;-74
2021/03/01 00:52:43;;;;;;;99.22;40.88;;;;;;;7.65;64.53;103450.22;4983052;28;114330;-73
2021/03/01 00:55:10;;;;;;;103.78;38.90;;;;;;;7.67;64.45;103443.25;4948560;28;123289;-73
2021/03/01 00:57:37;;;;;;;94.35;36.00;;;;;;;7.69;64.60;103446.78;4951255;28;123734;-73
2021/03/01 01:00:17;;;;;;;94.25;37.15;;;;;;;7.70;64.49;103444.13;4946155;28;114435;-73
2021/03/01 01:02:50;;;;;;;90.15;37.05;;;;;;;7.73;64.77;103453.84;4947087;28;115020;-73
2021/03/01 01:05:30;;;;;;;83.22;35.50;;;;;;;7.74;64.72;103447.69;4956182;28;122938;-73
2021/03/01 01:07:57;;;;;;;85.15;35.35;;;;;;;7.77;64.39;103461.78;4950070;28;123712;-73
2021/03/01 01:10:23;;;;;;;95.07;43.05;;;;;;;7.78;64.71;103452.13;4935779;28;114866;-73
2021/03/01 01:12:50;;;;;;;87.72;36.47;;;;;;;7.78;64.47;103457.41;4939303;28;114124;-74
2021/03/01 01:15:17;;;;;;;84.72;37.28;;;;;;;7.78;64.54;103446.88;4935807;28;125249;-72
2021/03/01 01:17:43;;;;;;;93.65;38.22;;;;;;;7.78;64.99;103452.13;4936390;28;123681;-73
2021/03/01 01:20:12;;;;;;;75.93;34.13;;;;;;;7.80;64.53;103450.41;4936500;28;114788;-73
2021/03/01 01:22:40;;;;;;;75.47;33.42;;;;;;;7.82;64.74;103453.94;4936999;28;114189;-73
2021/03/01 01:25:09;;;;;;;85.10;38.30;;;;;;;7.83;64.61;103454.81;4934721;28;123809;-72
2021/03/01 01:27:35;;;;;;;73.13;35.08;;;;;;;7.82;64.68;103453.94;4935924;28;123107;-73
2021/03/01 01:30:11;;;;;;;74.13;34.00;;;;;;;7.81;64.57;103449.50;4971386;28;113542;-73
2021/03/01 01:32:38;;;;;;;73.07;32.50;;;;;;;7.81;64.65;103446.88;4970878;28;113817;-74
2021/03/01 01:35:10;;;;;;;62.30;31.50;;;;;;;7.77;64.61;103455.63;4950121;28;124215;-74
2021/03/01 01:37:38;;;;;;;57.83;27.13;;;;;;;7.76;64.86;103459.13;4935530;28;123801;-72
2021/03/01 01:40:07;;;;;;;50.58;23.65;;;;;;;7.75;64.69;103452.09;4939598;28;114015;-73
2021/03/01 01:42:34;;;;;;;46.47;25.23;;;;;;;7.78;64.35;103453.00;4945119;28;113948;-73
2021/03/01 01:45:05;;;;;;;43.45;22.05;;;;;;;7.79;64.35;103454.75;4941311;28;125383;-72
2021/03/01 01:47:31;;;;;;;43.25;23.38;;;;;;;7.81;64.33;103446.88;4937175;28;124081;-73
2021/03/01 01:49:58;;;;;;;46.38;23.75;;;;;;;7.83;64.01;103439.84;4950560;28;116297;-74
2021/03/01 01:52:25;;;;;;;45.22;24.10;;;;;;;7.85;63.75;103443.38;4967910;28;115687;-73
2021/03/01 01:54:51;;;;;;;53.30;28.42;;;;;;;7.84;63.84;103441.63;4971599;28;124216;-73
2021/03/01 01:57:18;;;;;;;56.15;29.52;;;;;;;7.80;64.09;103442.47;4935484;28;123844;-73
2021/03/01 01:59:44;;;;;;;59.38;29.02;;;;;;;7.74;64.03;103434.50;4937769;28;114064;-73
2021/03/01 02:02:11;;;;;;;56.13;28.90;;;;;;;7.72;64.24;103436.22;4946375;28;113305;-73
2021/03/01 02:04:46;;;;;;;52.35;24.83;;;;;;;7.69;64.34;103441.50;4948723;28;124879;-73
2021/03/01 02:07:36;;;;;;;70.82;32.28;;;;;;;7.65;64.58;103434.41;4949035;28;123407;-73
2021/03/01 02:10:33;;;;;;;65.20;29.83;;;;;;;7.63;64.10;103430.88;4941144;28;113745;-74
2021/03/01 02:13:28;;;;;;;70.18;31.73;;;;;;;7.60;64.88;103421.19;4938026;28;112080;-73
2021/03/01 02:16:03;;;;;;;56.78;28.13;;;;;;;7.59;64.74;103425.59;4967910;28;123597;-72
2021/03/01 02:18:30;;;;;;;56.72;29.88;;;;;;;7.57;64.89;103422.06;4938260;28;124375;-73
2021/03/01 02:21:06;;;;;;;50.03;24.52;;;;;;;7.55;64.73;103422.91;4946351;28;114209;-73
2021/03/01 02:23:33;;;;;;;51.65;23.38;;;;;;;7.57;64.72;103424.69;4967564;28;113986;-73
2021/03/01 02:26:04;;;;;;;44.88;23.38;;;;;;;7.59;64.77;103430.88;4940145;28;124215;-73
2021/03/01 02:28:37;;;;;;;43.25;21.30;;;;;;;7.64;64.80;103427.38;4938379;28;123615;-74
2021/03/01 02:31:05;;;;;;;50.90;23.70;;;;;;;7.67;64.47;103422.16;4936366;28;113861;-73
2021/03/01 02:33:46;;;;;;;45.65;23.75;;;;;;;7.68;64.58;103418.63;4939094;28;114094;-73
2021/03/01 02:36:18;;;;;;;47.22;23.40;;;;;;;7.71;64.31;103413.38;4938435;28;123918;-73
2021/03/01 02:38:48;;;;;;;48.25;23.27;;;;;;;7.72;64.32;103415.13;4944574;28;123850;-74
2021/03/01 02:41:16;;;;;;;46.78;23.05;;;;;;;7.73;64.22;103416.91;4944523;28;114470;-73
2021/03/01 02:43:44;;;;;;;42.10;23.00;;;;;;;7.75;63.97;103416.03;4933828;28;115157;-73
2021/03/01 02:46:11;;;;;;;50.45;24.15;;;;;;;7.80;64.32;103416.09;4963491;28;123069;-73
2021/03/01 02:48:41;;;;;;;49.10;24.30;;;;;;;7.83;64.28;103412.59;4940770;28;124240;-73
2021/03/01 02:51:10;;;;;;;49.47;22.90;;;;;;;7.86;64.10;103413.50;4944352;28;114553;-74
2021/03/01 02:53:39;;;;;;;49.72;24.52;;;;;;;7.89;63.83;103408.25;4940100;28;113901;-73
2021/03/01 02:56:06;;;;;;;43.45;22.05;;;;;;;7.90;63.90;103410.00;4937330;28;123007;-73
2021/03/01 02:58:36;;;;;;;44.25;23.58;;;;;;;7.93;63.56;103409.13;4940808;28;122840;-73
2021/03/01 03:01:05;;;;;;;46.13;22.45;;;;;;;7.95;63.92;103413.56;4944481;28;113694;-73
2021/03/01 03:03:33;;;;;;;46.22;23.20;;;;;;;7.99;63.97;103407.44;4964946;28;113215;-73
2021/03/01 03:06:00;;;;;;;50.47;25.08;;;;;;;8.01;63.62;103406.56;4948631;28;124474;-73
2021/03/01 03:08:31;;;;;;;49.65;23.73;;;;;;;8.03;63.77;103410.09;4942066;28;125091;-74
2021/03/01 03:10:59;;;;;;;46.15;24.02;;;;;;;8.02;63.67;103403.06;4946213;28;112864;-74
2021/03/01 03:13:26;;;;;;;43.30;21.92;;;;;;;8.02;63.44;103408.31;4945785;28;114577;-73
2021/03/01 03:15:56;;;;;;;47.08;22.98;;;;;;;7.99;63.76;103399.53;4932233;28;123529;-74
2021/03/01 03:18:24;;;;;;;41.25;21.48;;;;;;;8.01;63.23;103396.91;4949772;28;124932;-73
2021/03/01 03:20:51;;;;;;;47.10;24.45;;;;;;;8.02;63.46;103397.78;4948300;28;115104;-73
2021/03/01 03:23:18;;;;;;;50.53;24.38;;;;;;;7.99;63.55;103388.97;4968991;28;113891;-73
2021/03/01 03:25:45;;;;;;;52.72;22.80;;;;;;;8.01;63.46;103388.09;4946712;28;123787;-74
2021/03/01 03:28:13;;;;;;;51.10;25.38;;;;;;;8.01;63.46;103388.09;4937186;28;124199;-73
2021/03/01 03:30:41;;;;;;;49.10;23.17;;;;;;;8.03;63.39;103399.56;4947776;28;115505;-73
2021/03/01 03:33:08;;;;;;;48.80;24.08;;;;;;;8.04;63.50;103396.03;4949486;28;114001;-74
2021/03/01 03:35:35;;;;;;;50.65;23.27;;;;;;;8.05;63.26;103392.53;4935776;28;124538;-72
2021/03/01 03:38:10;;;;;;;47.88;23.10;;;;;;;8.06;63.25;103378.44;4972026;28;122217;-72
2021/03/01 03:40:39;;;;;;;48.35;24.40;;;;;;;8.10;63.36;103380.22;4967505;28;113767;-73
2021/03/01 03:43:06;;;;;;;50.88;26.02;;;;;;;8.08;63.45;103384.59;4933737;28;114084;-73
2021/03/01 03:45:34;;;;;;;51.70;24.88;;;;;;;8.06;63.13;103386.34;4936058;28;124825;-73
2021/03/01 03:48:04;;;;;;;55.47;25.55;;;;;;;8.02;63.48;103381.94;4967541;28;122627;-73
2021/03/01 03:50:34;;;;;;;50.30;25.60;;;;;;;8.01;63.39;103377.56;4936278;28;114675;-73
2021/03/01 03:53:12;;;;;;;55.35;27.02;;;;;;;7.96;63.61;103388.94;4939664;28;113888;-74
2021/03/01 03:55:40;;;;;;;48.13;23.50;;;;;;;7.93;63.65;103388.94;4938900;28;124428;-75
2021/03/01 03:58:12;;;;;;;53.08;25.23;;;;;;;7.91;63.50;103390.69;4937509;28;124030;-73
2021/03/01 04:00:40;;;;;;;50.22;24.50;;;;;;;7.92;63.89;103392.44;4937997;28;114258;-73
2021/03/01 04:03:12;;;;;;;50.20;24.83;;;;;;;7.93;63.70;103394.22;4936035;28;114409;-73
2021/03/01 04:05:41;;;;;;;48.70;23.58;;;;;;;7.94;63.78;103390.69;4975038;28;123231;-73
2021/03/01 04:08:11;;;;;;;51.63;23.10;;;;;;;7.97;63.40;103374.88;4940484;28;123557;-73
2021/03/01 04:10:42;;;;;;;46.47;22.30;;;;;;;7.99;63.45;103378.41;4943025;28;114533;-73
2021/03/01 04:13:13;;;;;;;41.83;23.50;;;;;;;8.03;63.54;103378.44;4935844;28;114131;-73
2021/03/01 04:15:47;;;;;;;43.17;22.60;;;;;;;8.05;63.35;103381.97;4968306;28;123979;-74
2021/03/01 04:18:18;;;;;;;47.85;22.90;;;;;;;8.08;63.24;103384.59;4947387;28;123056;-74
2021/03/01 04:20:47;;;;;;;48.15;24.00;;;;;;;8.06;63.48;103378.44;4936358;28;115749;-73
2021/03/01 04:23:16;;;;;;;52.20;24.52;;;;;;;8.03;63.17;103379.31;4947543;28;114034;-74
2021/03/01 04:25:46;;;;;;;53.40;24.42;;;;;;;8.02;63.32;103381.94;4936161;28;124690;-73
2021/03/01 04:28:14;;;;;;;50.53;24.27;;;;;;;7.99;63.34;103388.97;4939985;28;124775;-74
2021/03/01 04:30:43;;;;;;;52.67;26.55;;;;;;;7.95;63.34;103387.19;4962860;28;113754;-74
2021/03/01 04:33:13;;;;;;;57.53;28.33;;;;;;;7.91;63.53;103385.41;4968248;28;114770;-73
2021/03/01 04:35:41;;;;;;;47.22;22.48;;;;;;;7.86;63.74;103381.84;4968066;28;122707;-74
2021/03/01 04:38:08;;;;;;;43.33;21.50;;;;;;;7.85;63.53;103380.06;4936361;28;123863;-73
2021/03/01 04:40:35;;;;;;;41.25;22.05;;;;;;;7.86;63.37;103381.84;4939254;28;114186;-74
2021/03/01 04:43:02;;;;;;;44.88;22.00;;;;;;;7.90;63.68;103388.03;4966851;28;113721;-73
2021/03/01 04:45:30;;;;;;;43.58;21.92;;;;;;;7.93;63.69;103373.09;4934759;28;124081;-73
2021/03/01 04:47:56;;;;;;;39.15;20.75;;;;;;;7.95;63.36;103371.34;4954601;28;123619;-73
2021/03/01 04:50:23;;;;;;;43.97;22.80;;;;;;;8.01;63.60;103367.00;4946789;28;114470;-73
2021/03/01 04:52:50;;;;;;;47.08;23.27;;;;;;;8.01;63.35;103370.50;4939080;28;114177;-74
2021/03/01 04:55:17;;;;;;;50.17;23.02;;;;;;;8.02;63.15;103376.66;4936973;28;124495;-74
2021/03/01 04:57:44;;;;;;;48.35;24.13;;;;;;;8.02;63.24;103379.31;4967159;28;125063;-73
2021/03/01 05:00:12;;;;;;;56.40;26.20;;;;;;;8.00;63.24;103379.28;4938460;28;114238;-73
2021/03/01 05:02:39;;;;;;;54.42;25.08;;;;;;;7.97;63.65;103380.16;4947966;28;113361;-73
2021/03/01 05:05:08;;;;;;;49.30;24.17;;;;;;;7.93;63.59;103383.66;4939139;28;124074;-73
2021/03/01 05:07:36;;;;;;;59.42;26.95;;;;;;;7.88;63.69;103385.38;4939505;28;123730;-73
2021/03/01 05:10:08;;;;;;;60.88;27.58;;;;;;;7.82;63.84;103385.34;4937861;28;115491;-73
2021/03/01 05:12:35;;;;;;;60.03;25.65;;;;;;;7.77;63.83;103387.03;4947537;28;114504;-73
2021/03/01 05:15:03;;;;;;;56.05;25.42;;;;;;;7.71;63.56;103398.44;4968424;28;123695;-74
2021/03/01 05:17:30;;;;;;;61.97;29.05;;;;;;;7.68;63.73;103402.78;4945071;28;122797;-73
2021/03/01 05:19:57;;;;;;;55.08;24.73;;;;;;;7.63;64.17;103393.94;4937164;28;114188;-73
2021/03/01 05:22:23;;;;;;;51.00;22.92;;;;;;;7.63;63.91;103396.59;4935843;28;115121;-73
2021/03/01 05:24:50;;;;;;;54.40;23.48;;;;;;;7.64;64.01;103390.47;4945124;28;123251;-73
2021/03/01 05:27:16;;;;;;;54.03;24.02;;;;;;;7.68;63.82;103397.50;4939068;28;123800;-73
2021/03/01 05:29:43;;;;;;;47.30;22.52;;;;;;;7.71;63.76;103397.56;4948714;28;113469;-73
2021/03/01 05:32:10;;;;;;;51.42;23.90;;;;;;;7.73;64.05;103395.81;5001030;22;113601;-70
2021/03/01 05:34:37;;;;;;;47.80;22.35;;;;;;;7.73;63.99;103385.25;4952376;28;122368;-70
2021/03/01 05:37:04;;;;;;;51.95;22.88;;;;;;;7.70;63.78;103395.78;4949081;28;123719;-71
2021/03/01 05:39:30;;;;;;;45.00;21.27;;;;;;;7.67;63.76;103395.75;4931808;28;113733;-71
2021/03/01 05:41:58;;;;;;;45.53;22.08;;;;;;;7.66;63.46;103400.13;4952212;28;113007;-71
2021/03/01 05:44:25;;;;;;;39.33;20.48;;;;;;;7.68;63.65;103392.25;4969830;28;123260;-70
2021/03/01 05:46:54;;;;;;;41.58;21.23;;;;;;;7.70;63.49;103395.78;4956358;28;124729;-71
2021/03/01 05:49:21;;;;;;;38.65;20.67;;;;;;;7.72;63.70;103399.31;4951719;28;113786;-71
2021/03/01 05:51:51;;;;;;;41.78;19.90;;;;;;;7.74;63.39;103387.00;4969689;28;112569;-71
2021/03/01 05:54:20;;;;;;;41.35;20.67;;;;;;;7.76;63.13;103390.53;4938156;28;122676;-71
2021/03/01 05:56:47;;;;;;;35.63;19.48;;;;;;;7.79;63.19;103395.84;4939316;28;123284;-71
2021/03/01 05:59:16;;;;;;;39.45;19.60;;;;;;;7.81;62.98;103396.75;4938053;28;113902;-71
2021/03/01 06:01:43;;;;;;;35.55;19.40;;;;;;;7.82;62.95;103398.53;4954106;28;113171;-71
2021/03/01 06:04:11;;;;;;;37.08;18.85;;;;;;;7.80;63.15;103397.63;4955608;28;123064;-71
2021/03/01 06:06:38;;;;;;;37.65;20.27;;;;;;;7.81;63.06;103394.09;4943852;28;121551;-70
2021/03/01 06:09:06;;;;;;;39.40;20.73;;;;;;;7.79;62.77;103396.72;4960123;28;114989;-70
2021/03/01 06:11:32;;;;;;;40.45;19.38;;;;;;;7.82;62.90;103398.53;4959586;28;114070;-71
2021/03/01 06:14:02;;;;;;;39.75;19.92;;;;;;;7.82;63.03;103397.63;4957880;28;123562;-71
2021/03/01 06:16:30;;;;;;;42.22;21.02;;;;;;;7.84;63.12;103399.41;4974298;28;122808;-71
2021/03/01 06:18:57;;;;;;;42.55;20.40;;;;;;;7.85;63.05;103395.00;4958768;28;114249;-71
2021/03/01 06:21:24;;;;;;;41.60;19.70;;;;;;;7.86;62.95;103395.03;4959797;28;112812;-71
2021/03/01 06:23:52;;;;;;;45.90;21.40;;;;;;;7.87;62.86;103399.41;4957488;28;124653;-71
2021/03/01 06:26:30;;;;;;;44.58;22.65;;;;;;;7.86;63.07;103396.78;4952702;28;123688;-71
2021/03/01 06:29:02;;;;;;;43.00;21.73;;;;;;;7.83;63.03;103402.03;4956463;28;113967;-71
2021/03/01 06:31:42;;;;;;;52.00;23.88;;;;;;;7.78;62.99;103399.38;4934298;28;112292;-71
2021/03/01 06:34:32;;;;;;;48.72;23.52;;;;;;;7.71;63.03;103408.97;4954127;28;123024;-71
2021/03/01 06:37:12;;;;;;;49.47;22.98;;;;;;;7.68;63.38;103397.50;4954424;28;122310;-71
2021/03/01 06:39:40;;;;;;;52.15;24.92;;;;;;;7.64;63.53;103401.00;4957931;28;112826;-71
2021/03/01 06:42:15;;;;;;;52.55;24.08;;;;;;;7.60;63.48;103400.09;4952546;28;113590;-71
2021/03/01 06:45:02;;;;;;;49.95;24.58;;;;;;;7.58;63.29;103408.00;4950636;28;122958;-71
2021/03/01 06:47:52;;;;;;;47.30;22.75;;;;;;;7.54;63.54;103422.03;4942182;28;122376;-70
2021/03/01 06:50:23;;;;;;;51.72;23.80;;;;;;;7.52;63.71;103410.56;4947547;28;115586;-71
2021/03/01 06:52:51;;;;;;;57.55;25.48;;;;;;;7.51;63.66;103421.97;4963380;28;114390;-71
2021/03/01 06:55:18;;;;;;;50.80;24.35;;;;;;;7.50;63.82;103420.22;4937431;28;123144;-71
2021/03/01 06:57:45;;;;;;;53.80;24.55;;;;;;;7.48;63.86;103427.25;4952104;28;123660;-71
2021/03/01 07:00:12;;;;;;;47.75;21.80;;;;;;;7.48;63.78;103429.88;4962443;28;113419;-71
2021/03/01 07:02:40;;;;;;;54.17;26.02;;;;;;;7.47;63.90;103430.72;4950524;28;112605;-71
2021/03/01 07:05:07;;;;;;;45.35;22.05;;;;;;;7.47;64.11;103425.47;4939960;28;123094;-71
2021/03/01 07:07:38;;;;;;;48.05;23.25;;;;;;;7.47;63.98;103430.72;4940869;28;124214;-71
2021/03/01 07:10:07;;;;;;;41.35;20.40;;;;;;;7.47;63.85;103435.13;4942275;28;113910;-71
2021/03/01 07:12:41;;;;;;;44.80;21.83;;;;;;;7.49;63.91;103434.28;4954766;28;113715;-71
2021/03/01 07:15:10;;;;;;;45.70;22.27;;;;;;;7.50;63.81;103435.19;4930568;28;122163;-72
2021/03/01 07:17:39;;;;;;;44.45;21.25;;;;;;;7.53;64.37;103436.06;4949832;28;124318;-71
2021/03/01 07:20:16;;;;;;;38.53;19.40;;;;;;;7.56;63.89;103436.09;4947409;28;115037;-71
2021/03/01 07:22:44;;;;;;;42.55;21.25;;;;;;;7.63;64.02;103441.41;4943660;28;113353;-72
2021/03/01 07:25:13;;;;;;;36.70;19.63;;;;;;;7.68;63.88;103439.72;4935504;28;126121;-71
2021/03/01 07:27:43;;;;;;;41.42;21.08;;;;;;;7.71;63.60;103439.75;4928292;28;122752;-72
2021/03/01 07:30:12;;;;;;;43.85;20.45;;;;;;;7.73;63.88;103432.75;4931866;28;113672;-70
2021/03/01 07:32:40;;;;;;;41.67;21.58;;;;;;;7.74;63.49;103431.84;4940456;28;114192;-70
2021/03/01 07:35:09;;;;;;;36.35;18.75;;;;;;;7.76;63.34;103427.47;4937061;28;123784;-70
2021/03/01 07:37:37;;;;;;;38.85;19.08;;;;;;;7.77;63.26;103429.25;4945250;28;123753;-72
2021/03/01 07:40:07;;;;;;;35.70;18.30;;;;;;;7.79;63.55;103435.41;4952351;28;114370;-71
2021/03/01 07:42:38;;;;;;;32.92;17.92;;;;;;;7.81;63.17;103431.03;4930980;28;96941;-72
2021/03/01 07:45:08;;;;;;;33.92;16.73;;;;;;;7.82;63.24;103432.81;4950477;28;122966;-71
2021/03/01 07:47:35;;;;;;;34.85;17.58;;;;;;;7.84;63.02;103431.06;4948774;28;123911;-72
2021/03/01 07:50:04;;;;;;;35.15;18.40;;;;;;;7.83;63.20;103428.41;4952190;28;114632;-71
2021/03/01 07:52:31;;;;;;;32.20;17.45;;;;;;;7.78;62.95;103420.47;4925556;28;113781;-71
2021/03/01 07:55:10;;;;;;;38.72;18.98;;;;;;;7.71;62.95;103424.81;4928794;28;123436;-71
2021/03/01 07:57:39;;;;;;;36.80;18.95;;;;;;;7.66;63.17;103441.47;4954889;28;124555;-72
2021/03/01 08:00:34;;;;;;;33.03;16.52;;;;;;;7.61;63.25;103438.81;4954245;28;114490;-71
2021/03/01 08:03:36;;;;;;;47.33;23.37;;;;;;;7.56;63.59;103436.09;4948815;28;113976;-72
2021/03/01 08:06:04;;;;;;;42.15;19.88;;;;;;;7.54;63.35;103432.56;4933311;28;123712;-71
2021/03/01 08:08:49;;;;;;;46.08;19.90;;;;;;;7.53;63.92;103428.16;4933882;28;126265;-71
2021/03/01 08:11:39;;;;;;;46.22;20.40;;;;;;;7.56;63.83;103433.47;4944059;28;114192;-72
2021/03/01 08:14:33;;;;;;;44.42;20.58;;;;;;;7.59;63.86;103430.88;4954367;28;113617;-71
2021/03/01 08:17:24;;;;;;;34.45;17.45;;;;;;;7.64;63.87;103438.81;4937780;28;123172;-68
2021/03/01 08:19:52;;;;;;;40.42;19.63;;;;;;;7.70;63.49;103422.16;4942484;28;123806;-70
2021/03/01 08:22:19;;;;;;;37.50;18.83;;;;;;;7.73;63.61;103422.19;4948831;28;114309;-71
2021/03/01 08:24:47;;;;;;;35.22;18.50;;;;;;;7.78;64.09;103424.00;4952658;28;112939;-70
2021/03/01 08:27:26;;;;;;;34.85;17.40;;;;;;;7.84;63.86;103424.94;4951748;28;123857;-70
2021/03/01 08:30:18;;;;;;;37.45;18.55;;;;;;;7.91;63.58;103432.91;4942094;28;123070;-70
2021/03/01 08:33:07;;;;;;;35.75;18.70;;;;;;;7.97;63.55;103438.22;4936270;28;115462;-71
2021/03/01 08:35:35;;;;;;;37.58;18.92;;;;;;;8.02;63.30;103429.44;4943094;28;114649;-69
2021/03/01 08:38:03;;;;;;;36.55;19.10;;;;;;;8.06;63.15;103436.50;4943986;28;122926;-70
2021/03/01 08:40:31;;;;;;;40.65;19.98;;;;;;;8.12;63.30;103433.94;4932018;28;123284;-70
2021/03/01 08:43:03;;;;;;;36.63;18.55;;;;;;;8.16;63.10;103433.06;4950189;28;113574;-70
2021/03/01 08:45:35;;;;;;;36.03;18.42;;;;;;;8.16;63.12;103433.06;4936842;28;112852;-69
2021/03/01 08:48:07;;;;;;;34.17;17.08;;;;;;;8.19;62.69;103433.06;4934453;28;124718;-70
2021/03/01 08:50:40;;;;;;;34.67;17.83;;;;;;;8.21;62.61;103436.59;4949744;28;123472;-71
2021/03/01 08:53:18;;;;;;;34.33;18.02;;;;;;;8.20;62.70;103429.56;4944676;28;113742;-71
2021/03/01 08:55:44;;;;;;;39.10;19.65;;;;;;;8.16;62.49;103428.66;4958193;28;114252;-72
2021/03/01 08:58:13;;;;;;;37.25;19.08;;;;;;;8.11;62.28;103429.50;4965011;28;123630;-71
2021/03/01 09:00:54;;;;;;;34.58;18.88;;;;;;;8.04;62.35;103432.97;4941547;28;121453;-70
2021/03/01 09:03:26;;;;;;;44.65;21.70;;;;;;;7.98;62.45;103439.97;4953969;28;112398;-71
2021/03/01 09:06:04;;;;;;;42.28;22.05;;;;;;;7.91;62.76;103440.81;4961241;28;113962;-71
2021/03/01 09:08:39;;;;;;;36.67;17.73;;;;;;;7.84;62.82;103433.72;4945901;28;124886;-71
2021/03/01 09:11:16;;;;;;;38.17;18.60;;;;;;;7.81;63.13;103441.59;4948182;28;123843;-70
2021/03/01 09:13:45;;;;;;;38.58;19.05;;;;;;;7.78;62.87;103433.66;4950288;28;112638;-72
2021/03/01 09:16:17;;;;;;;37.17;19.80;;;;;;;7.77;63.07;103434.53;4950676;28;114380;-71
2021/03/01 09:18:48;;;;;;;38.20;17.65;;;;;;;7.75;63.08;103425.72;4944573;28;124164;-71
2021/03/01 09:21:18;;;;;;;41.58;19.98;;;;;;;7.73;62.94;103427.47;4946703;28;123378;-71
2021/03/01 09:23:55;;;;;;;40.53;19.00;;;;;;;7.70;63.22;103416.88;4942599;28;114739;-71
2021/03/01 09:26:23;;;;;;;37.78;19.45;;;;;;;7.68;63.70;103418.63;4947644;28;113483;-71
2021/03/01 09:28:52;;;;;;;35.05;17.15;;;;;;;7.69;63.69;103417.75;4950236;28;123240;-71
2021/03/01 09:31:40;;;;;;;32.72;16.73;;;;;;;7.74;63.74;103418.66;4937269;28;122583;-71
2021/03/01 09:34:08;;;;;;;34.50;17.67;;;;;;;7.81;63.76;103420.47;4949617;28;115034;-71
2021/03/01 09:36:35;;;;;;;37.13;17.63;;;;;;;7.87;63.69;103423.16;4940531;28;114182;-70
2021/03/01 09:39:06;;;;;;;35.17;17.75;;;;;;;7.92;63.57;103420.59;4923502;28;122955;-71
2021/03/01 09:41:48;;;;;;;37.97;19.02;;;;;;;7.96;63.72;103420.59;4941840;28;124073;-70
2021/03/01 09:44:27;;;;;;;35.85;17.88;;;;;;;8.01;63.49;103428.56;4954351;28;113729;-70
2021/03/01 09:46:56;;;;;;;33.05;16.08;;;;;;;8.07;63.73;103428.59;4969464;28;114493;-70
2021/03/01 09:49:25;;;;;;;32.55;16.10;;;;;;;8.15;63.65;103423.38;4956041;28;124675;-70
2021/03/01 09:51:52;;;;;;;30.65;16.10;;;;;;;8.24;63.35;103420.78;4954862;28;123297;-70
2021/03/01 09:54:22;;;;;;;30.30;15.82;;;;;;;8.29;63.40;103419.06;4955389;28;113472;-71
2021/03/01 09:56:55;;;;;;;32.95;17.45;;;;;;;8.35;63.03;103413.81;4955177;28;113604;-70
2021/03/01 09:59:42;;;;;;;37.85;19.63;;;;;;;8.38;62.99;103413.84;4956040;28;123547;-70
2021/03/01 10:02:20;;;;;;;33.88;17.38;;;;;;;8.41;63.03;103418.25;4948618;28;124068;-71
2021/03/01 10:04:48;;;;;;;29.52;15.13;;;;;;;8.44;62.47;103418.31;4953160;28;114116;-71
2021/03/01 10:07:35;;;;;;;30.00;16.15;;;;;;;8.39;62.15;103415.59;4949032;28;113579;-70
2021/03/01 10:10:14;;;;;;;27.90;15.23;;;;;;;8.32;61.93;103413.78;4950407;28;123613;-70
2021/03/01 10:12:45;;;;;;;31.70;16.55;;;;;;;8.29;62.48;103413.78;4952383;28;123285;-71
2021/03/01 10:15:19;;;;;;;26.75;13.85;;;;;;;8.27;62.55;103414.63;4938552;28;115167;-70
2021/03/01 10:17:46;;;;;;;31.88;16.52;;;;;;;8.23;62.45;103416.41;4946027;28;113144;-71
2021/03/01 10:20:15;;;;;;;30.27;16.73;;;;;;;8.21;62.24;103418.13;4939562;28;123149;-71
2021/03/01 10:23:02;;;;;;;27.60;14.90;;;;;;;8.15;62.62;103420.72;4942462;28;123339;-71
2021/03/01 10:25:38;;;;;;;30.52;17.08;;;;;;;8.13;62.69;103406.66;4938229;28;115132;-70
2021/03/01 10:28:20;;;;;;;33.42;17.75;;;;;;;8.13;62.85;103411.94;4941556;28;114270;-71
2021/03/01 10:30:58;;;;;;;33.88;17.55;;;;;;;8.10;62.95;103411.91;4931329;28;123026;-71
2021/03/01 10:33:25;;;;;;;36.40;17.02;;;;;;;8.10;63.03;103406.63;4943853;28;123350;-71
2021/03/01 10:36:09;;;;;;;31.73;16.35;;;;;;;8.08;63.08;103409.28;4942202;28;114332;-70
2021/03/01 10:39:16;;;;;;;32.15;16.65;;;;;;;8.09;63.23;103399.59;4935196;28;113110;-71
2021/03/01 10:41:44;;;;;;;;;;;;;;;8.11;63.28;103405.75;4934634;28;124723;-72
2021/03/01 10:44:12;;;;;;;33.85;17.08;;;;;;;8.16;62.96;103406.69;4951120;28;124091;-71
2021/03/01 10:46:45;;;;;;;31.08;16.63;;;;;;;8.16;63.17;103411.97;4943522;28;114192;-73
2021/03/01 10:49:23;;;;;;;31.27;16.92;;;;;;;8.17;63.12;103408.44;4938996;28;112018;-73
2021/03/01 10:51:52;;;;;;;29.77;16.20;;;;;;;8.17;63.04;103400.50;4947212;28;123948;-73
2021/03/01 10:54:20;;;;;;;29.02;17.70;;;;;;;8.19;63.26;103411.97;4945026;28;121924;-74
2021/03/01 10:56:47;;;;;;;29.58;16.33;;;;;;;8.21;63.27;103404.94;4954082;28;114670;-72
2021/03/01 10:59:13;;;;;;;30.55;16.63;;;;;;;8.26;63.24;103407.63;4948680;28;114313;-74
2021/03/01 11:01:42;;;;;;;30.65;16.85;;;;;;;8.33;63.08;103407.66;4948648;28;124075;-74
2021/03/01 11:04:11;;;;;;;28.40;16.35;;;;;;;8.38;63.23;103403.28;4946906;28;124196;-73
2021/03/01 11:06:38;;;;;;;29.73;15.70;;;;;;;8.47;63.36;103407.75;4949524;28;114500;-71
2021/03/01 11:09:08;;;;;;;28.35;15.88;;;;;;;8.56;63.40;103396.34;4940535;28;114921;-72
2021/03/01 11:11:38;;;;;;;29.50;16.75;;;;;;;8.63;62.79;103398.16;4938646;28;124090;-71
2021/03/01 11:14:06;;;;;;;28.30;15.82;;;;;;;8.66;62.29;103398.16;4937622;28;122377;-71
2021/03/01 11:16:33;;;;;;;28.58;15.18;;;;;;;8.67;62.42;103394.66;4942960;28;113312;-71
2021/03/01 11:19:00;;;;;;;27.67;15.80;;;;;;;8.70;62.29;103399.06;4948247;28;113630;-70
2021/03/01 11:21:27;;;;;;;25.70;15.25;;;;;;;8.70;62.19;103388.47;4941764;28;123520;-70
2021/03/01 11:23:54;;;;;;;30.33;16.42;;;;;;;8.73;62.09;103394.66;4947418;28;121900;-70
2021/03/01 11:26:21;;;;;;;29.98;16.60;;;;;;;8.71;62.13;103396.41;4948635;28;115681;-72